sensor_id;sensor_type;location;lat;lon;timestamp;pressure;altitude;pressure_sealevel;temperature;humidity
65905;BME280;56275;49.802;24.020;2022-11-24T00:01:13;96252.84;;;21.89;48.61
65905;BME280;56275;49.802;24.020;2022-11-24T00:04:09;96249.38;;;21.87;48.70
65905;BME280;56275;49.802;24.020;2022-11-24T00:06:55;96261.63;;;21.89;48.44
65905;BME280;56275;49.802;24.020;2022-11-24T00:09:40;96258.94;;;21.91;48.58
65905;BME280;56275;49.802;24.020;2022-11-24T00:12:25;96257.22;;;21.90;48.69
65905;BME280;56275;49.802;24.020;2022-11-24T00:15:17;96259.84;;;21.90;48.72
65905;BME280;56275;49.802;24.020;2022-11-24T00:18:02;96264.16;;;21.92;48.56
65905;BME280;56275;49.802;24.020;2022-11-24T00:20:52;96268.50;;;21.93;48.48
65905;BME280;56275;49.802;24.020;2022-11-24T00:23:44;96279.16;;;21.92;48.42
65905;BME280;56275;49.802;24.020;2022-11-24T00:26:32;96277.44;;;21.91;48.46
65905;BME280;56275;49.802;24.020;2022-11-24T00:29:18;96279.22;;;21.90;48.21
65905;BME280;56275;49.802;24.020;2022-11-24T00:32:35;96280.00;;;21.92;48.55
65905;BME280;56275;49.802;24.020;2022-11-24T00:35:27;96282.59;;;21.94;48.64
65905;BME280;56275;49.802;24.020;2022-11-24T00:38:12;96286.22;;;21.91;48.42
65905;BME280;56275;49.802;24.020;2022-11-24T00:41:06;96280.06;;;21.91;48.43
65905;BME280;56275;49.802;24.020;2022-11-24T00:43:52;96280.94;;;21.91;48.48
65905;BME280;56275;49.802;24.020;2022-11-24T00:46:38;96274.72;;;21.92;48.53
65905;BME280;56275;49.802;24.020;2022-11-24T00:49:23;96281.06;;;21.88;48.60
65905;BME280;56275;49.802;24.020;2022-11-24T00:52:12;96279.31;;;21.87;48.49
65905;BME280;56275;49.802;24.020;2022-11-24T00:55:04;96284.69;;;21.86;48.41
65905;BME280;56275;49.802;24.020;2022-11-24T00:57:52;96282.97;;;21.85;48.25
65905;BME280;56275;49.802;24.020;2022-11-24T01:00:43;96281.16;;;21.85;48.17
65905;BME280;56275;49.802;24.020;2022-11-24T01:03:31;96281.16;;;21.85;48.45
65905;BME280;56275;49.802;24.020;2022-11-24T01:06:22;96274.16;;;21.84;48.17
65905;BME280;56275;49.802;24.020;2022-11-24T01:09:14;96283.88;;;21.84;48.34
65905;BME280;56275;49.802;24.020;2022-11-24T01:12:00;96290.09;;;21.83;48.32
65905;BME280;56275;49.802;24.020;2022-11-24T01:14:45;96287.47;;;21.81;48.37
65905;BME280;56275;49.802;24.020;2022-11-24T01:17:30;96284.84;;;21.81;48.32
65905;BME280;56275;49.802;24.020;2022-11-24T01:20:16;96291.97;;;21.79;48.22
65905;BME280;56275;49.802;24.020;2022-11-24T01:23:01;96291.97;;;21.79;48.18
65905;BME280;56275;49.802;24.020;2022-11-24T01:25:52;96289.34;;;21.79;48.09
65905;BME280;56275;49.802;24.020;2022-11-24T01:28:44;96281.34;;;21.80;48.38
65905;BME280;56275;49.802;24.020;2022-11-24T01:31:29;96283.94;;;21.82;48.30
65905;BME280;56275;49.802;24.020;2022-11-24T01:34:21;96286.59;;;21.82;48.12
65905;BME280;56275;49.802;24.020;2022-11-24T01:37:07;96284.84;;;21.81;48.12
65905;BME280;56275;49.802;24.020;2022-11-24T01:39:52;96283.97;;;21.80;48.11
65905;BME280;56275;49.802;24.020;2022-11-24T01:42:49;96283.97;;;21.80;48.35
65905;BME280;56275;49.802;24.020;2022-11-24T01:45:37;96275.19;;;21.80;48.32
65905;BME280;56275;49.802;24.020;2022-11-24T01:48:27;96283.09;;;21.82;48.30
65905;BME280;56275;49.802;24.020;2022-11-24T01:51:22;96277.84;;;21.80;48.33
65905;BME280;56275;49.802;24.020;2022-11-24T01:54:23;96282.25;;;21.79;48.16
65905;BME280;56275;49.802;24.020;2022-11-24T02:00:05;96288.38;;;21.82;48.06
65905;BME280;56275;49.802;24.020;2022-11-24T02:02:58;96286.63;;;21.80;48.12
65905;BME280;56275;49.802;24.020;2022-11-24T02:08:59;96292.84;;;21.79;48.12
65905;BME280;56275;49.802;24.020;2022-11-24T02:11:46;96296.41;;;21.78;48.03
65905;BME280;56275;49.802;24.020;2022-11-24T02:14:35;96294.63;;;21.79;48.10
65905;BME280;56275;49.802;24.020;2022-11-24T02:17:21;96300.78;;;21.79;47.98
65905;BME280;56275;49.802;24.020;2022-11-24T02:20:10;96289.41;;;21.77;48.08
65905;BME280;56275;49.802;24.020;2022-11-24T02:23:09;96286.88;;;21.74;47.92
65905;BME280;56275;49.802;24.020;2022-11-24T02:26:00;96278.88;;;21.76;48.13
65905;BME280;56275;49.802;24.020;2022-11-24T02:28:50;96280.69;;;21.75;48.13
65905;BME280;56275;49.802;24.020;2022-11-24T02:31:49;96273.66;;;21.74;47.86
65905;BME280;56275;49.802;24.020;2022-11-24T02:34:35;96270.97;;;21.76;48.03
65905;BME280;56275;49.802;24.020;2022-11-24T02:37:20;96273.59;;;21.76;47.81
65905;BME280;56275;49.802;24.020;2022-11-24T02:40:06;96271.88;;;21.75;48.00
65905;BME280;56275;49.802;24.020;2022-11-24T02:43:03;96270.97;;;21.76;47.92
65905;BME280;56275;49.802;24.020;2022-11-24T02:45:49;96277.16;;;21.75;47.88
65905;BME280;56275;49.802;24.020;2022-11-24T02:48:40;96281.53;;;21.76;48.00
65905;BME280;56275;49.802;24.020;2022-11-24T02:51:25;96284.19;;;21.76;47.96
65905;BME280;56275;49.802;24.020;2022-11-24T02:54:11;96283.31;;;21.75;47.87
65905;BME280;56275;49.802;24.020;2022-11-24T02:56:56;96282.50;;;21.73;47.68
65905;BME280;56275;49.802;24.020;2022-11-24T02:59:44;96285.13;;;21.73;47.99
65905;BME280;56275;49.802;24.020;2022-11-24T03:02:30;96279.91;;;21.72;47.67
65905;BME280;56275;49.802;24.020;2022-11-24T03:05:21;96281.59;;;21.74;47.88
65905;BME280;56275;49.802;24.020;2022-11-24T03:08:06;96293.03;;;21.75;47.64
65905;BME280;56275;49.802;24.020;2022-11-24T03:10:51;96286.88;;;21.74;47.53
65905;BME280;56275;49.802;24.020;2022-11-24T03:13:37;96294.84;;;21.73;47.64
65905;BME280;56275;49.802;24.020;2022-11-24T03:16:28;96301.84;;;21.74;47.72
65905;BME280;56275;49.802;24.020;2022-11-24T03:19:20;96299.22;;;21.74;47.69
65905;BME280;56275;49.802;24.020;2022-11-24T03:22:15;96299.28;;;21.72;47.62
65905;BME280;56275;49.802;24.020;2022-11-24T03:25:00;96295.78;;;21.72;47.71
65905;BME280;56275;49.802;24.020;2022-11-24T03:27:45;96301.06;;;21.72;47.60
65905;BME280;56275;49.802;24.020;2022-11-24T03:30:30;96307.22;;;21.72;47.46
65905;BME280;56275;49.802;24.020;2022-11-24T03:33:21;96301.06;;;21.72;47.67
65905;BME280;56275;49.802;24.020;2022-11-24T03:36:07;96298.41;;;21.72;47.67
65905;BME280;56275;49.802;24.020;2022-11-24T03:39:02;96306.34;;;21.72;47.59
65905;BME280;56275;49.802;24.020;2022-11-24T03:41:49;96307.34;;;21.69;47.46
65905;BME280;56275;49.802;24.020;2022-11-24T03:44:35;96300.38;;;21.67;47.77
65905;BME280;56275;49.802;24.020;2022-11-24T03:47:20;96306.47;;;21.69;47.44
65905;BME280;56275;49.802;24.020;2022-11-24T03:50:11;96298.56;;;21.69;47.49
65905;BME280;56275;49.802;24.020;2022-11-24T03:53:02;96303.88;;;21.67;47.60
65905;BME280;56275;49.802;24.020;2022-11-24T03:55:53;96308.28;;;21.67;47.71
65905;BME280;56275;49.802;24.020;2022-11-24T03:58:39;96308.25;;;21.68;47.39
65905;BME280;56275;49.802;24.020;2022-11-24T04:01:24;96313.56;;;21.68;47.47
65905;BME280;56275;49.802;24.020;2022-11-24T04:04:10;96313.47;;;21.70;47.53
65905;BME280;56275;49.802;24.020;2022-11-24T04:07:02;96321.47;;;21.68;47.39
65905;BME280;56275;49.802;24.020;2022-11-24T04:09:54;96318.88;;;21.67;47.37
65905;BME280;56275;49.802;24.020;2022-11-24T04:12:45;96316.28;;;21.65;47.31
65905;BME280;56275;49.802;24.020;2022-11-24T04:15:30;96322.50;;;21.64;47.39
65905;BME280;56275;49.802;24.020;2022-11-24T04:18:15;96328.66;;;21.65;47.38
65905;BME280;56275;49.802;24.020;2022-11-24T04:21:00;96325.22;;;21.63;47.44
65905;BME280;56275;49.802;24.020;2022-11-24T04:23:52;96325.09;;;21.66;47.32
65905;BME280;56275;49.802;24.020;2022-11-24T04:26:43;96344.44;;;21.66;47.22
65905;BME280;56275;49.802;24.020;2022-11-24T04:29:28;96347.94;;;21.67;47.36
65905;BME280;56275;49.802;24.020;2022-11-24T04:32:13;96343.59;;;21.66;47.43
65905;BME280;56275;49.802;24.020;2022-11-24T04:34:58;96341.78;;;21.68;47.41
65905;BME280;56275;49.802;24.020;2022-11-24T04:37:43;96344.41;;;21.68;47.21
65905;BME280;56275;49.802;24.020;2022-11-24T04:40:35;96340.09;;;21.65;47.21
65905;BME280;56275;49.802;24.020;2022-11-24T04:43:28;96341.06;;;21.63;47.41
65905;BME280;56275;49.802;24.020;2022-11-24T04:46:12;96340.09;;;21.65;47.21
65905;BME280;56275;49.802;24.020;2022-11-24T04:48:58;96340.09;;;21.65;46.99
65905;BME280;56275;49.802;24.020;2022-11-24T04:51:43;96325.22;;;21.63;47.21
65905;BME280;56275;49.802;24.020;2022-11-24T04:54:28;96333.88;;;21.66;47.05
65905;BME280;56275;49.802;24.020;2022-11-24T04:57:22;96338.22;;;21.67;47.12
65905;BME280;56275;49.802;24.020;2022-11-24T05:00:14;96340.94;;;21.66;47.16
65905;BME280;56275;49.802;24.020;2022-11-24T05:03:06;96351.56;;;21.64;47.06
65905;BME280;56275;49.802;24.020;2022-11-24T05:05:51;96348.06;;;21.64;47.17
65905;BME280;56275;49.802;24.020;2022-11-24T05:08:36;96350.72;;;21.64;47.21
65905;BME280;56275;49.802;24.020;2022-11-24T05:11:31;96354.28;;;21.63;47.05
65905;BME280;56275;49.802;24.020;2022-11-24T05:14:22;96352.44;;;21.65;47.21
65905;BME280;56275;49.802;24.020;2022-11-24T05:17:13;96356.81;;;21.66;47.23
65905;BME280;56275;49.802;24.020;2022-11-24T05:19:58;96356.00;;;21.64;47.02
65905;BME280;56275;49.802;24.020;2022-11-24T05:22:43;96359.56;;;21.63;47.15
65905;BME280;56275;49.802;24.020;2022-11-24T05:25:28;96363.06;;;21.63;46.97
65905;BME280;56275;49.802;24.020;2022-11-24T05:28:14;96363.13;;;21.62;47.12
65905;BME280;56275;49.802;24.020;2022-11-24T05:31:06;96366.63;;;21.62;46.98
65905;BME280;56275;49.802;24.020;2022-11-24T05:33:57;96366.56;;;21.64;47.05
65905;BME280;56275;49.802;24.020;2022-11-24T05:36:48;96369.09;;;21.67;47.15
65905;BME280;56275;49.802;24.020;2022-11-24T05:39:46;96376.22;;;21.65;47.14
65905;BME280;56275;49.802;24.020;2022-11-24T05:42:32;96377.16;;;21.64;47.27
65905;BME280;56275;49.802;24.020;2022-11-24T05:45:26;96386.88;;;21.63;47.17
65905;BME280;56275;49.802;24.020;2022-11-24T05:48:18;96391.34;;;21.61;47.23
65905;BME280;56275;49.802;24.020;2022-11-24T05:51:11;96394.78;;;21.63;47.10
65905;BME280;56275;49.802;24.020;2022-11-24T05:53:56;96396.63;;;21.61;47.18
65905;BME280;56275;49.802;24.020;2022-11-24T05:56:42;96397.53;;;21.60;47.11
65905;BME280;56275;49.802;24.020;2022-11-24T05:59:30;96394.00;;;21.61;47.01
65905;BME280;56275;49.802;24.020;2022-11-24T06:02:14;96401.03;;;21.61;47.02
65905;BME280;56275;49.802;24.020;2022-11-24T06:05:00;96401.94;;;21.60;47.18
65905;BME280;56275;49.802;24.020;2022-11-24T06:07:44;96401.16;;;21.58;47.03
65905;BME280;56275;49.802;24.020;2022-11-24T06:10:30;96411.72;;;21.58;46.93
65905;BME280;56275;49.802;24.020;2022-11-24T06:13:15;96410.75;;;21.60;47.02
65905;BME280;56275;49.802;24.020;2022-11-24T06:16:11;96412.59;;;21.58;47.18
65905;BME280;56275;49.802;24.020;2022-11-24T06:18:56;96407.25;;;21.60;47.19
65905;BME280;56275;49.802;24.020;2022-11-24T06:21:48;96401.03;;;21.61;47.10
65905;BME280;56275;49.802;24.020;2022-11-24T06:24:39;96408.97;;;21.61;47.12
65905;BME280;56275;49.802;24.020;2022-11-24T06:27:24;96412.53;;;21.60;46.99
65905;BME280;56275;49.802;24.020;2022-11-24T06:30:10;96411.72;;;21.58;47.17
65905;BME280;56275;49.802;24.020;2022-11-24T06:33:00;96414.31;;;21.59;47.20
65905;BME280;56275;49.802;24.020;2022-11-24T06:35:46;96420.44;;;21.60;47.05
65905;BME280;56275;49.802;24.020;2022-11-24T06:38:37;96424.94;;;21.58;46.87
65905;BME280;56275;49.802;24.020;2022-11-24T06:41:29;96432.75;;;21.61;46.94
65905;BME280;56275;49.802;24.020;2022-11-24T06:44:15;96439.81;;;21.60;47.04
65905;BME280;56275;49.802;24.020;2022-11-24T06:47:00;96449.53;;;21.60;47.20
65905;BME280;56275;49.802;24.020;2022-11-24T06:49:46;96445.06;;;21.62;47.06
65905;BME280;56275;49.802;24.020;2022-11-24T06:52:31;96457.38;;;21.63;47.40
65905;BME280;56275;49.802;24.020;2022-11-24T06:55:23;96460.00;;;21.63;47.21
65905;BME280;56275;49.802;24.020;2022-11-24T06:58:14;96464.47;;;21.61;47.12
65905;BME280;56275;49.802;24.020;2022-11-24T07:00:59;96462.66;;;21.63;47.25
65905;BME280;56275;49.802;24.020;2022-11-24T07:03:45;96467.09;;;21.62;47.03
65905;BME280;56275;49.802;24.020;2022-11-24T07:06:38;96460.81;;;21.65;47.04
65905;BME280;56275;49.802;24.020;2022-11-24T07:09:31;96462.53;;;21.66;47.32
65905;BME280;56275;49.802;24.020;2022-11-24T07:12:23;96468.75;;;21.65;47.20
65905;BME280;56275;49.802;24.020;2022-11-24T07:15:14;96470.53;;;21.64;47.16
65905;BME280;56275;49.802;24.020;2022-11-24T07:18:05;96467.88;;;21.64;47.21
65905;BME280;56275;49.802;24.020;2022-11-24T07:20:50;96462.66;;;21.63;47.06
65905;BME280;56275;49.802;24.020;2022-11-24T07:23:42;96468.75;;;21.65;47.37
65905;BME280;56275;49.802;24.020;2022-11-24T07:26:34;96473.94;;;21.68;47.16
65905;BME280;56275;49.802;24.020;2022-11-24T07:29:21;96473.88;;;21.69;47.14
65905;BME280;56275;49.802;24.020;2022-11-24T07:32:09;96473.03;;;21.69;46.76
65905;BME280;56275;49.802;24.020;2022-11-24T07:35:00;96469.50;;;21.68;46.96
65905;BME280;56275;49.802;24.020;2022-11-24T07:37:54;96471.25;;;21.69;47.25
65905;BME280;56275;49.802;24.020;2022-11-24T07:40:46;96471.25;;;21.69;46.88
65905;BME280;56275;49.802;24.020;2022-11-24T07:43:33;96462.44;;;21.69;47.47
65905;BME280;56275;49.802;24.020;2022-11-24T07:51:37;96465.63;;;21.78;47.65
65905;BME280;56275;49.802;24.020;2022-11-24T07:54:29;96469.13;;;21.79;47.55
65905;BME280;56275;49.802;24.020;2022-11-24T07:57:27;96478.09;;;21.75;47.34
65905;BME280;56275;49.802;24.020;2022-11-24T08:04:08;96484.97;;;21.79;47.90
65905;BME280;56275;49.802;24.020;2022-11-24T08:07:03;96486.69;;;21.82;48.84
65905;BME280;56275;49.802;24.020;2022-11-24T08:10:29;96487.31;;;21.88;48.93
65905;BME280;56275;49.802;24.020;2022-11-24T08:13:21;96489.03;;;21.89;49.17
65905;BME280;56275;49.802;24.020;2022-11-24T08:16:09;96495.91;;;21.95;49.10
65905;BME280;56275;49.802;24.020;2022-11-24T08:22:56;96501.06;;;21.98;49.41
65905;BME280;56275;49.802;24.020;2022-11-24T08:25:54;96502.72;;;22.00;49.27
65905;BME280;56275;49.802;24.020;2022-11-24T08:28:51;96504.50;;;22.00;49.28
65905;BME280;56275;49.802;24.020;2022-11-24T08:32:29;96505.38;;;22.00;49.32
65905;BME280;56275;49.802;24.020;2022-11-24T08:35:49;96512.38;;;22.01;49.49
65905;BME280;56275;49.802;24.020;2022-11-24T08:38:39;96520.38;;;22.00;49.63
65905;BME280;56275;49.802;24.020;2022-11-24T08:41:32;96525.78;;;21.97;49.80
65905;BME280;56275;49.802;24.020;2022-11-24T08:44:35;96530.91;;;22.01;49.73
65905;BME280;56275;49.802;24.020;2022-11-24T08:47:21;96536.09;;;22.04;49.82
65905;BME280;56275;49.802;24.020;2022-11-24T08:50:08;96541.31;;;22.06;50.06
65905;BME280;56275;49.802;24.020;2022-11-24T08:53:07;96532.66;;;22.02;50.15
65905;BME280;56275;49.802;24.020;2022-11-24T08:56:17;96529.19;;;22.00;50.13
65905;BME280;56275;49.802;24.020;2022-11-24T08:59:23;96530.97;;;22.00;50.26
65905;BME280;56275;49.802;24.020;2022-11-24T09:02:14;96534.53;;;21.99;50.23
65905;BME280;56275;49.802;24.020;2022-11-24T09:05:14;96527.41;;;22.01;50.08
65905;BME280;56275;49.802;24.020;2022-11-24T09:08:06;96522.06;;;22.02;49.95
65905;BME280;56275;49.802;24.020;2022-11-24T09:11:04;96530.88;;;22.03;49.96
65905;BME280;56275;49.802;24.020;2022-11-24T09:13:58;96535.22;;;22.04;50.31
65905;BME280;56275;49.802;24.020;2022-11-24T09:16:52;96535.22;;;22.04;50.07
65905;BME280;56275;49.802;24.020;2022-11-24T09:19:37;96531.72;;;22.03;50.08
65905;BME280;56275;49.802;24.020;2022-11-24T09:22:25;96533.53;;;22.01;50.07
65905;BME280;56275;49.802;24.020;2022-11-24T09:25:16;96537.97;;;22.01;50.22
65905;BME280;56275;49.802;24.020;2022-11-24T09:28:10;96531.81;;;22.00;50.35
65905;BME280;56275;49.802;24.020;2022-11-24T09:31:08;96533.66;;;21.98;50.34
65905;BME280;56275;49.802;24.020;2022-11-24T09:34:18;96531.03;;;21.98;50.09
65905;BME280;56275;49.802;24.020;2022-11-24T09:37:09;96530.09;;;21.99;50.30
65905;BME280;56275;49.802;24.020;2022-11-24T09:39:58;96533.53;;;22.01;49.98
65905;BME280;56275;49.802;24.020;2022-11-24T09:43:02;96528.25;;;22.01;49.98
65905;BME280;56275;49.802;24.020;2022-11-24T09:56:37;96532.59;;;22.04;50.25
65905;BME280;56275;49.802;24.020;2022-11-24T09:59:32;96531.72;;;22.03;50.03
65905;BME280;56275;49.802;24.020;2022-11-24T10:02:20;96526.53;;;22.00;50.03
65905;BME280;56275;49.802;24.020;2022-11-24T10:05:05;96528.31;;;22.00;50.20
65905;BME280;56275;49.802;24.020;2022-11-24T10:11:35;96528.22;;;22.03;50.03
65905;BME280;56275;49.802;24.020;2022-11-24T10:28:09;96531.72;;;22.03;50.12
65905;BME280;56275;49.802;24.020;2022-11-24T10:31:31;96536.19;;;22.01;49.98
65905;BME280;56275;49.802;24.020;2022-11-24T10:34:31;96534.47;;;22.00;50.14
65905;BME280;56275;49.802;24.020;2022-11-24T10:37:39;96535.38;;;21.99;50.23
65905;BME280;56275;49.802;24.020;2022-11-24T10:40:35;96538.16;;;21.96;49.76
65905;BME280;56275;49.802;24.020;2022-11-24T10:43:28;96546.09;;;21.96;49.99
65905;BME280;56275;49.802;24.020;2022-11-24T10:46:27;96544.41;;;21.94;49.94
65905;BME280;56275;49.802;24.020;2022-11-24T10:49:25;96551.59;;;21.90;49.92
65905;BME280;56275;49.802;24.020;2022-11-24T10:52:33;96553.19;;;21.94;49.72
65905;BME280;56275;49.802;24.020;2022-11-24T10:55:20;96568.09;;;21.97;49.62
65905;BME280;56275;49.802;24.020;2022-11-24T10:58:37;96565.56;;;21.94;49.58
65905;BME280;56275;49.802;24.020;2022-11-24T11:01:31;96567.34;;;21.93;49.43
65905;BME280;56275;49.802;24.020;2022-11-24T11:04:33;96568.31;;;21.91;49.45
65905;BME280;56275;49.802;24.020;2022-11-24T11:07:25;96571.03;;;21.89;49.34
65905;BME280;56275;49.802;24.020;2022-11-24T11:10:31;96577.97;;;21.92;49.31
65905;BME280;56275;49.802;24.020;2022-11-24T11:13:31;96573.66;;;21.89;49.10
65905;BME280;56275;49.802;24.020;2022-11-24T11:22:48;96585.25;;;21.85;48.88
65905;BME280;56275;49.802;24.020;2022-11-24T11:25:46;96585.25;;;21.85;49.06
65905;BME280;56275;49.802;24.020;2022-11-24T11:28:38;96597.53;;;21.86;48.97
65905;BME280;56275;49.802;24.020;2022-11-24T11:31:30;96596.75;;;21.84;48.99
65905;BME280;56275;49.802;24.020;2022-11-24T11:34:26;96593.19;;;21.85;48.80
65905;BME280;56275;49.802;24.020;2022-11-24T11:37:39;96588.88;;;21.83;48.91
65905;BME280;56275;49.802;24.020;2022-11-24T11:40:54;96593.25;;;21.84;49.17
65905;BME280;56275;49.802;24.020;2022-11-24T11:43:42;96589.72;;;21.83;48.90
65905;BME280;56275;49.802;24.020;2022-11-24T11:46:31;96599.44;;;21.83;48.93
65905;BME280;56275;49.802;24.020;2022-11-24T11:49:31;96595.09;;;21.82;48.92
65905;BME280;56275;49.802;24.020;2022-11-24T11:59:57;96601.13;;;21.85;48.86
65905;BME280;56275;49.802;24.020;2022-11-24T12:25:37;96616.00;;;21.88;48.73
65905;BME280;56275;49.802;24.020;2022-11-24T12:28:48;96623.84;;;21.91;48.74
65905;BME280;56275;49.802;24.020;2022-11-24T12:47:41;96627.91;;;22.01;49.85
65905;BME280;56275;49.802;24.020;2022-11-24T12:50:36;96632.31;;;22.02;50.08
65905;BME280;56275;49.802;24.020;2022-11-24T12:53:34;96630.47;;;22.04;50.21
65905;BME280;56275;49.802;24.020;2022-11-24T12:57:03;96637.41;;;22.06;50.36
65905;BME280;56275;49.802;24.020;2022-11-24T13:00:05;96635.63;;;22.07;50.66
65905;BME280;56275;49.802;24.020;2022-11-24T13:03:26;96633.84;;;22.09;50.80
65905;BME280;56275;49.802;24.020;2022-11-24T13:09:25;96632.94;;;22.10;50.94
65905;BME280;56275;49.802;24.020;2022-11-24T13:12:16;96625.84;;;22.11;50.79
65905;BME280;56275;49.802;24.020;2022-11-24T13:15:15;96634.66;;;22.11;50.94
65905;BME280;56275;49.802;24.020;2022-11-24T13:18:00;96630.22;;;22.12;51.21
65905;BME280;56275;49.802;24.020;2022-11-24T13:20:57;96630.09;;;22.15;50.88
65905;BME280;56275;49.802;24.020;2022-11-24T13:23:57;96638.94;;;22.15;50.95
65905;BME280;56275;49.802;24.020;2022-11-24T13:27:37;96630.94;;;22.17;51.28
65905;BME280;56275;49.802;24.020;2022-11-24T13:33:29;96640.66;;;22.16;50.85
65905;BME280;56275;49.802;24.020;2022-11-24T13:43:40;96650.59;;;22.08;50.76
65905;BME280;56275;49.802;24.020;2022-11-24T13:54:01;96648.25;;;21.99;50.35
65905;BME280;56275;49.802;24.020;2022-11-24T14:00:55;96643.94;;;21.96;50.34
65905;BME280;56275;49.802;24.020;2022-11-24T14:03:58;96651.81;;;21.98;50.11
65905;BME280;56275;49.802;24.020;2022-11-24T14:07:15;96658.91;;;21.97;49.99
65905;BME280;56275;49.802;24.020;2022-11-24T14:13:49;96666.09;;;21.92;49.79
65905;BME280;56275;49.802;24.020;2022-11-24T14:20:29;96672.44;;;21.88;49.93
65905;BME280;56275;49.802;24.020;2022-11-24T14:23:51;96680.44;;;21.85;49.80
65905;BME280;56275;49.802;24.020;2022-11-24T14:26:57;96683.94;;;21.86;49.64
65905;BME280;56275;49.802;24.020;2022-11-24T14:36:58;96698.94;;;21.85;49.48
65905;BME280;56275;49.802;24.020;2022-11-24T14:40:35;96701.66;;;21.84;49.34
65905;BME280;56275;49.802;24.020;2022-11-24T14:43:31;96696.41;;;21.82;49.24
65905;BME280;56275;49.802;24.020;2022-11-24T14:46:44;96699.00;;;21.84;49.41
65905;BME280;56275;49.802;24.020;2022-11-24T14:49:42;96695.44;;;21.85;49.03
65905;BME280;56275;49.802;24.020;2022-11-24T14:52:35;96703.50;;;21.82;49.07
65905;BME280;56275;49.802;24.020;2022-11-24T14:55:34;96697.38;;;21.79;49.00
65905;BME280;56275;49.802;24.020;2022-11-24T14:58:45;96707.94;;;21.79;48.94
65905;BME280;56275;49.802;24.020;2022-11-24T15:01:32;96706.28;;;21.77;48.74
65905;BME280;56275;49.802;24.020;2022-11-24T15:05:19;96708.91;;;21.77;48.84
65905;BME280;56275;49.802;24.020;2022-11-24T15:09:16;96707.19;;;21.76;49.08
65905;BME280;56275;49.802;24.020;2022-11-24T15:16:28;96718.53;;;21.79;49.19
65905;BME280;56275;49.802;24.020;2022-11-24T15:19:33;96727.31;;;21.80;48.77
65905;BME280;56275;49.802;24.020;2022-11-24T15:26:45;96740.53;;;21.80;49.04
65905;BME280;56275;49.802;24.020;2022-11-24T15:29:52;96746.78;;;21.77;48.75
65905;BME280;56275;49.802;24.020;2022-11-24T15:33:13;96739.72;;;21.78;48.80
65905;BME280;56275;49.802;24.020;2022-11-24T15:36:16;96749.38;;;21.79;48.74
65905;BME280;56275;49.802;24.020;2022-11-24T15:39:16;96746.78;;;21.77;48.43
65905;BME280;56275;49.802;24.020;2022-11-24T15:42:20;96743.28;;;21.77;48.61
65905;BME280;56275;49.802;24.020;2022-11-24T15:45:14;96749.56;;;21.74;48.18
65905;BME280;56275;49.802;24.020;2022-11-24T15:48:01;96750.41;;;21.75;48.06
65905;BME280;56275;49.802;24.020;2022-11-24T15:50:52;96752.19;;;21.74;48.38
65905;BME280;56275;49.802;24.020;2022-11-24T15:53:53;96757.44;;;21.76;48.14
65905;BME280;56275;49.802;24.020;2022-11-24T15:57:03;96756.56;;;21.75;47.80
65905;BME280;56275;49.802;24.020;2022-11-24T15:59:54;96758.34;;;21.75;47.85
65905;BME280;56275;49.802;24.020;2022-11-24T16:02:39;96763.66;;;21.73;47.39
65905;BME280;56275;49.802;24.020;2022-11-24T16:05:27;96757.50;;;21.73;47.50
65905;BME280;56275;49.802;24.020;2022-11-24T16:08:18;96765.44;;;21.73;47.33
65905;BME280;56275;49.802;24.020;2022-11-24T16:11:09;96770.81;;;21.70;47.38
65905;BME280;56275;49.802;24.020;2022-11-24T16:13:57;96774.34;;;21.70;47.20
65905;BME280;56275;49.802;24.020;2022-11-24T16:16:42;96773.53;;;21.68;47.13
65905;BME280;56275;49.802;24.020;2022-11-24T16:19:29;96774.41;;;21.67;47.08
65905;BME280;56275;49.802;24.020;2022-11-24T16:22:21;96777.94;;;21.68;46.97
65905;BME280;56275;49.802;24.020;2022-11-24T16:25:06;96786.75;;;21.67;46.57
65905;BME280;56275;49.802;24.020;2022-11-24T16:27:58;96780.72;;;21.63;46.67
65905;BME280;56275;49.802;24.020;2022-11-24T16:30:50;96787.84;;;21.61;46.41
65905;BME280;56275;49.802;24.020;2022-11-24T16:33:37;96792.28;;;21.59;46.24
65905;BME280;56275;49.802;24.020;2022-11-24T16:36:27;96789.59;;;21.61;46.43
65905;BME280;56275;49.802;24.020;2022-11-24T16:39:19;96791.34;;;21.62;46.17
65905;BME280;56275;49.802;24.020;2022-11-24T16:42:11;96804.59;;;21.60;46.11
65905;BME280;56275;49.802;24.020;2022-11-24T16:44:56;96794.88;;;21.61;46.22
65905;BME280;56275;49.802;24.020;2022-11-24T16:47:42;96809.00;;;21.60;46.07
65905;BME280;56275;49.802;24.020;2022-11-24T16:50:27;96804.63;;;21.59;45.90
65905;BME280;56275;49.802;24.020;2022-11-24T16:53:12;96802.81;;;21.61;46.15
65905;BME280;56275;49.802;24.020;2022-11-24T16:56:07;96805.50;;;21.59;45.89
65905;BME280;56275;49.802;24.020;2022-11-24T16:58:58;96809.75;;;21.65;46.35
65905;BME280;56275;49.802;24.020;2022-11-24T17:01:49;96807.03;;;21.68;46.53
65905;BME280;56275;49.802;24.020;2022-11-24T19:18:03;96890.66;;;20.31;47.52
65905;BME280;56275;49.802;24.020;2022-11-24T19:21:09;96895.59;;;20.48;47.25
65905;BME280;56275;49.802;24.020;2022-11-24T19:24:18;96896.94;;;20.64;47.15
65905;BME280;56275;49.802;24.020;2022-11-24T19:27:09;96894.84;;;20.78;46.97
65905;BME280;56275;49.802;24.020;2022-11-24T19:30:08;96901.63;;;20.88;46.73
65905;BME280;56275;49.802;24.020;2022-11-24T19:32:53;96897.03;;;20.96;46.79
65905;BME280;56275;49.802;24.020;2022-11-24T19:35:39;96891.63;;;21.01;46.42
65905;BME280;56275;49.802;24.020;2022-11-24T19:38:32;96893.28;;;21.05;46.18
65905;BME280;56275;49.802;24.020;2022-11-24T19:41:28;96896.72;;;21.09;46.40
65905;BME280;56275;49.802;24.020;2022-11-24T19:44:20;96893.91;;;21.15;46.40
65905;BME280;56275;49.802;24.020;2022-11-24T19:47:13;96900.94;;;21.16;46.24